sensor_id;sensor_type;location;lat;lon;timestamp;noise_LAeq;noise_LA_min;noise_LA_max;noise_LA01;noise_LA95
61270;Laerm;47150;53.032;8.960;2023-02-28T00:00:12;36.98;35.56;38.13;;
61270;Laerm;47150;53.032;8.960;2023-02-28T00:02:40;36.99;35.67;38.16;;
61270;Laerm;47150;53.032;8.960;2023-02-28T00:05:07;36.99;35.64;38.25;;
61270;Laerm;47150;53.032;8.960;2023-02-28T00:07:33;37.02;35.57;38.28;;
61270;Laerm;47150;53.032;8.960;2023-02-28T00:09:59;37.03;35.29;38.32;;
61270;Laerm;47150;53.032;8.960;2023-02-28T00:12:25;37.03;35.57;38.31;;
61270;Laerm;47150;53.032;8.960;2023-02-28T00:14:51;37.05;35.46;38.54;;
61270;Laerm;47150;53.032;8.960;2023-02-28T00:17:17;37.06;35.78;38.31;;
61270;Laerm;47150;53.032;8.960;2023-02-28T00:19:50;37.08;35.73;38.35;;
61270;Laerm;47150;53.032;8.960;2023-02-28T00:22:20;37.10;35.72;38.20;;
61270;Laerm;47150;53.032;8.960;2023-02-28T00:24:46;37.10;35.67;38.38;;
61270;Laerm;47150;53.032;8.960;2023-02-28T00:27:12;37.11;35.79;38.25;;
61270;Laerm;47150;53.032;8.960;2023-02-28T00:29:38;37.12;35.74;38.38;;
61270;Laerm;47150;53.032;8.960;2023-02-28T00:32:04;37.13;35.88;38.35;;
61270;Laerm;47150;53.032;8.960;2023-02-28T00:34:30;37.12;35.84;38.32;;
61270;Laerm;47150;53.032;8.960;2023-02-28T00:36:55;37.14;35.68;38.34;;
61270;Laerm;47150;53.032;8.960;2023-02-28T00:39:21;37.14;35.90;38.40;;
61270;Laerm;47150;53.032;8.960;2023-02-28T00:41:47;37.15;35.82;38.37;;
61270;Laerm;47150;53.032;8.960;2023-02-28T00:44:12;37.13;35.73;38.34;;
61270;Laerm;47150;53.032;8.960;2023-02-28T00:46:38;37.15;35.84;38.53;;
61270;Laerm;47150;53.032;8.960;2023-02-28T00:49:03;37.15;35.79;38.67;;
61270;Laerm;47150;53.032;8.960;2023-02-28T00:51:29;37.15;35.86;38.43;;
61270;Laerm;47150;53.032;8.960;2023-02-28T00:53:54;37.15;35.83;38.36;;
61270;Laerm;47150;53.032;8.960;2023-02-28T00:56:20;37.17;35.70;38.51;;
61270;Laerm;47150;53.032;8.960;2023-02-28T00:58:45;37.18;35.88;38.38;;
61270;Laerm;47150;53.032;8.960;2023-02-28T01:01:11;37.19;35.83;38.60;;
61270;Laerm;47150;53.032;8.960;2023-02-28T01:03:36;37.21;35.54;38.56;;
61270;Laerm;47150;53.032;8.960;2023-02-28T01:06:01;37.20;35.94;38.38;;
61270;Laerm;47150;53.032;8.960;2023-02-28T01:08:27;37.20;35.80;38.73;;
61270;Laerm;47150;53.032;8.960;2023-02-28T01:10:53;37.21;35.81;38.47;;
61270;Laerm;47150;53.032;8.960;2023-02-28T01:13:19;37.21;35.83;38.29;;
61270;Laerm;47150;53.032;8.960;2023-02-28T01:15:50;37.21;35.74;38.43;;
61270;Laerm;47150;53.032;8.960;2023-02-28T01:18:16;37.23;35.98;38.43;;
61270;Laerm;47150;53.032;8.960;2023-02-28T01:20:41;37.26;35.96;38.43;;
61270;Laerm;47150;53.032;8.960;2023-02-28T01:23:07;37.27;35.80;38.41;;
61270;Laerm;47150;53.032;8.960;2023-02-28T01:25:37;37.28;35.92;38.48;;
61270;Laerm;47150;53.032;8.960;2023-02-28T01:28:02;37.31;36.01;38.65;;
61270;Laerm;47150;53.032;8.960;2023-02-28T01:30:28;37.32;35.77;38.89;;
61270;Laerm;47150;53.032;8.960;2023-02-28T01:32:54;37.33;35.69;38.48;;
61270;Laerm;47150;53.032;8.960;2023-02-28T01:35:19;37.33;35.98;38.65;;
61270;Laerm;47150;53.032;8.960;2023-02-28T01:37:45;37.33;35.92;38.65;;
61270;Laerm;47150;53.032;8.960;2023-02-28T01:40:11;37.33;35.84;38.51;;
61270;Laerm;47150;53.032;8.960;2023-02-28T01:42:36;37.33;36.06;38.51;;
61270;Laerm;47150;53.032;8.960;2023-02-28T01:47:39;37.33;35.99;38.51;;
61270;Laerm;47150;53.032;8.960;2023-02-28T01:50:09;37.34;35.88;38.55;;
61270;Laerm;47150;53.032;8.960;2023-02-28T01:52:36;37.35;36.04;38.57;;
61270;Laerm;47150;53.032;8.960;2023-02-28T01:55:04;37.34;36.03;38.38;;
61270;Laerm;47150;53.032;8.960;2023-02-28T01:57:41;37.35;35.97;38.42;;
61270;Laerm;47150;53.032;8.960;2023-02-28T02:00:09;37.35;36.05;38.55;;
61270;Laerm;47150;53.032;8.960;2023-02-28T02:02:36;37.35;35.88;38.49;;
61270;Laerm;47150;53.032;8.960;2023-02-28T02:05:08;37.36;36.10;38.42;;
61270;Laerm;47150;53.032;8.960;2023-02-28T02:07:38;37.36;36.12;38.62;;
61270;Laerm;47150;53.032;8.960;2023-02-28T02:10:17;37.35;36.16;38.55;;
61270;Laerm;47150;53.032;8.960;2023-02-28T02:17:58;37.32;35.91;38.58;;
61270;Laerm;47150;53.032;8.960;2023-02-28T02:27:06;37.27;36.00;38.40;;
61270;Laerm;47150;53.032;8.960;2023-02-28T02:37:50;37.28;35.97;38.46;;
61270;Laerm;47150;53.032;8.960;2023-02-28T02:40:19;37.30;35.97;38.39;;
61270;Laerm;47150;53.032;8.960;2023-02-28T02:42:53;37.33;35.96;39.20;;
61270;Laerm;47150;53.032;8.960;2023-02-28T02:45:25;37.37;35.80;38.69;;
61270;Laerm;47150;53.032;8.960;2023-02-28T02:47:56;37.42;36.02;38.72;;
61270;Laerm;47150;53.032;8.960;2023-02-28T02:50:26;37.44;36.03;38.56;;
61270;Laerm;47150;53.032;8.960;2023-02-28T02:52:59;37.49;36.18;38.71;;
61270;Laerm;47150;53.032;8.960;2023-02-28T02:55:26;37.52;36.14;38.74;;
61270;Laerm;47150;53.032;8.960;2023-02-28T02:58:02;37.52;36.27;38.77;;
61270;Laerm;47150;53.032;8.960;2023-02-28T03:00:35;37.54;36.33;38.86;;
61270;Laerm;47150;53.032;8.960;2023-02-28T03:03:03;37.56;36.27;38.77;;
61270;Laerm;47150;53.032;8.960;2023-02-28T03:05:35;37.60;36.40;39.15;;
61270;Laerm;47150;53.032;8.960;2023-02-28T03:08:04;37.62;36.23;38.81;;
61270;Laerm;47150;53.032;8.960;2023-02-28T03:10:39;37.65;36.25;38.87;;
61270;Laerm;47150;53.032;8.960;2023-02-28T03:16:57;37.71;36.45;38.85;;
61270;Laerm;47150;53.032;8.960;2023-02-28T03:22:06;37.79;36.36;39.08;;
61270;Laerm;47150;53.032;8.960;2023-02-28T03:25:01;37.81;36.56;38.99;;
61270;Laerm;47150;53.032;8.960;2023-02-28T03:27:38;37.84;36.52;39.20;;
61270;Laerm;47150;53.032;8.960;2023-02-28T03:30:08;37.86;36.61;39.06;;
61270;Laerm;47150;53.032;8.960;2023-02-28T03:32:38;37.89;36.64;39.46;;
61270;Laerm;47150;53.032;8.960;2023-02-28T03:35:18;37.91;36.54;39.23;;
61270;Laerm;47150;53.032;8.960;2023-02-28T03:37:48;37.93;36.58;39.35;;
61270;Laerm;47150;53.032;8.960;2023-02-28T03:40:20;37.96;36.67;39.12;;
61270;Laerm;47150;53.032;8.960;2023-02-28T03:42:49;37.97;36.56;39.30;;
61270;Laerm;47150;53.032;8.960;2023-02-28T03:45:20;37.98;36.65;39.17;;
61270;Laerm;47150;53.032;8.960;2023-02-28T03:48:13;38.02;36.59;39.41;;
61270;Laerm;47150;53.032;8.960;2023-02-28T03:50:44;38.02;36.71;39.33;;
61270;Laerm;47150;53.032;8.960;2023-02-28T03:53:24;38.03;36.75;39.13;;
61270;Laerm;47150;53.032;8.960;2023-02-28T03:55:57;38.05;36.91;39.36;;
61270;Laerm;47150;53.032;8.960;2023-02-28T03:58:43;38.07;36.73;39.28;;
61270;Laerm;47150;53.032;8.960;2023-02-28T04:01:16;38.07;36.51;39.23;;
61270;Laerm;47150;53.032;8.960;2023-02-28T04:03:45;38.08;36.85;39.31;;
61270;Laerm;47150;53.032;8.960;2023-02-28T04:06:19;38.08;36.84;39.34;;
61270;Laerm;47150;53.032;8.960;2023-02-28T04:08:45;38.10;36.84;39.26;;
61270;Laerm;47150;53.032;8.960;2023-02-28T04:11:23;38.09;36.85;39.39;;
61270;Laerm;47150;53.032;8.960;2023-02-28T04:13:52;38.08;36.73;39.21;;
61270;Laerm;47150;53.032;8.960;2023-02-28T04:16:17;38.09;36.89;39.43;;
61270;Laerm;47150;53.032;8.960;2023-02-28T04:18:42;38.09;36.78;39.31;;
61270;Laerm;47150;53.032;8.960;2023-02-28T04:21:09;38.09;36.80;39.32;;
61270;Laerm;47150;53.032;8.960;2023-02-28T04:23:35;38.09;36.81;39.44;;
61270;Laerm;47150;53.032;8.960;2023-02-28T04:26:01;38.08;36.75;39.32;;
61270;Laerm;47150;53.032;8.960;2023-02-28T04:28:26;38.07;36.57;39.48;;
61270;Laerm;47150;53.032;8.960;2023-02-28T04:31:03;38.06;36.39;39.60;;
61270;Laerm;47150;53.032;8.960;2023-02-28T04:33:30;38.07;36.52;39.42;;
61270;Laerm;47150;53.032;8.960;2023-02-28T04:36:01;38.07;36.81;39.39;;
61270;Laerm;47150;53.032;8.960;2023-02-28T04:38:29;38.07;36.70;39.38;;
61270;Laerm;47150;53.032;8.960;2023-02-28T04:40:57;38.08;36.84;39.44;;
61270;Laerm;47150;53.032;8.960;2023-02-28T04:43:22;38.06;36.50;39.22;;
61270;Laerm;47150;53.032;8.960;2023-02-28T04:45:48;38.05;36.53;39.41;;
61270;Laerm;47150;53.032;8.960;2023-02-28T04:48:13;38.05;36.76;39.18;;
61270;Laerm;47150;53.032;8.960;2023-02-28T04:50:38;38.06;36.79;39.20;;
61270;Laerm;47150;53.032;8.960;2023-02-28T04:53:04;38.05;36.90;39.33;;
61270;Laerm;47150;53.032;8.960;2023-02-28T04:55:29;38.05;36.83;39.34;;
61270;Laerm;47150;53.032;8.960;2023-02-28T04:57:55;38.03;36.87;39.66;;
61270;Laerm;47150;53.032;8.960;2023-02-28T05:00:20;38.02;36.89;39.20;;
61270;Laerm;47150;53.032;8.960;2023-02-28T05:02:46;38.02;36.60;39.50;;
61270;Laerm;47150;53.032;8.960;2023-02-28T05:05:11;38.01;36.74;39.45;;
61270;Laerm;47150;53.032;8.960;2023-02-28T05:07:44;38.01;36.65;39.10;;
61270;Laerm;47150;53.032;8.960;2023-02-28T05:10:11;37.98;36.55;39.26;;
61270;Laerm;47150;53.032;8.960;2023-02-28T05:12:37;37.97;36.61;39.12;;
61270;Laerm;47150;53.032;8.960;2023-02-28T05:15:04;37.95;36.66;39.16;;
61270;Laerm;47150;53.032;8.960;2023-02-28T05:17:30;37.95;36.58;39.19;;
61270;Laerm;47150;53.032;8.960;2023-02-28T05:19:56;37.95;36.72;39.19;;
61270;Laerm;47150;53.032;8.960;2023-02-28T05:22:21;37.93;36.49;39.18;;
61270;Laerm;47150;53.032;8.960;2023-02-28T05:24:47;37.90;36.68;39.15;;
61270;Laerm;47150;53.032;8.960;2023-02-28T05:27:12;37.88;36.54;39.08;;
61270;Laerm;47150;53.032;8.960;2023-02-28T05:29:38;37.87;36.39;38.97;;
61270;Laerm;47150;53.032;8.960;2023-02-28T05:32:12;37.87;36.51;39.26;;
61270;Laerm;47150;53.032;8.960;2023-02-28T05:34:38;37.85;36.41;39.02;;
61270;Laerm;47150;53.032;8.960;2023-02-28T05:37:05;37.85;36.49;39.01;;
61270;Laerm;47150;53.032;8.960;2023-02-28T05:39:30;37.85;36.39;38.96;;
61270;Laerm;47150;53.032;8.960;2023-02-28T05:41:56;37.83;36.37;38.96;;
61270;Laerm;47150;53.032;8.960;2023-02-28T05:44:21;37.81;36.65;38.91;;
61270;Laerm;47150;53.032;8.960;2023-02-28T05:46:46;37.77;36.59;39.07;;
61270;Laerm;47150;53.032;8.960;2023-02-28T05:49:12;37.73;36.24;38.82;;
61270;Laerm;47150;53.032;8.960;2023-02-28T05:51:37;37.72;36.09;38.85;;
61270;Laerm;47150;53.032;8.960;2023-02-28T05:54:05;37.73;36.38;38.89;;
61270;Laerm;47150;53.032;8.960;2023-02-28T05:56:31;37.75;36.63;38.84;;
61270;Laerm;47150;53.032;8.960;2023-02-28T05:58:59;37.81;36.52;38.94;;
61270;Laerm;47150;53.032;8.960;2023-02-28T06:01:38;37.87;36.45;38.94;;
61270;Laerm;47150;53.032;8.960;2023-02-28T06:04:06;37.91;36.70;39.11;;
61270;Laerm;47150;53.032;8.960;2023-02-28T06:06:33;37.92;36.76;39.06;;
61270;Laerm;47150;53.032;8.960;2023-02-28T06:09:03;37.94;36.65;39.11;;
61270;Laerm;47150;53.032;8.960;2023-02-28T06:11:30;37.95;36.74;39.29;;
61270;Laerm;47150;53.032;8.960;2023-02-28T06:14:00;37.95;36.47;39.30;;
61270;Laerm;47150;53.032;8.960;2023-02-28T06:16:27;37.92;36.83;39.09;;
61270;Laerm;47150;53.032;8.960;2023-02-28T06:18:53;37.91;36.72;39.22;;
61270;Laerm;47150;53.032;8.960;2023-02-28T06:21:21;37.87;36.68;39.00;;
61270;Laerm;47150;53.032;8.960;2023-02-28T06:23:46;37.85;36.39;39.02;;
61270;Laerm;47150;53.032;8.960;2023-02-28T06:26:12;37.84;36.63;39.10;;
61270;Laerm;47150;53.032;8.960;2023-02-28T06:28:37;37.86;36.72;38.93;;
61270;Laerm;47150;53.032;8.960;2023-02-28T06:31:10;37.84;36.71;39.12;;
61270;Laerm;47150;53.032;8.960;2023-02-28T06:33:37;37.84;36.57;39.08;;
61270;Laerm;47150;53.032;8.960;2023-02-28T06:36:04;37.84;36.65;39.14;;
61270;Laerm;47150;53.032;8.960;2023-02-28T06:38:30;37.85;36.62;39.00;;
61270;Laerm;47150;53.032;8.960;2023-02-28T06:40:57;37.83;36.24;38.99;;
61270;Laerm;47150;53.032;8.960;2023-02-28T06:43:23;37.79;36.37;38.89;;
61270;Laerm;47150;53.032;8.960;2023-02-28T06:45:49;37.82;36.53;38.97;;
61270;Laerm;47150;53.032;8.960;2023-02-28T06:48:16;37.83;36.36;38.94;;
61270;Laerm;47150;53.032;8.960;2023-02-28T06:50:42;37.85;36.35;39.06;;
61270;Laerm;47150;53.032;8.960;2023-02-28T06:53:07;37.86;36.45;39.06;;
61270;Laerm;47150;53.032;8.960;2023-02-28T06:55:32;37.87;36.66;39.14;;
61270;Laerm;47150;53.032;8.960;2023-02-28T06:57:58;37.87;36.66;39.04;;
61270;Laerm;47150;53.032;8.960;2023-02-28T07:00:24;37.86;36.47;39.14;;
61270;Laerm;47150;53.032;8.960;2023-02-28T07:02:50;37.89;36.61;39.00;;
61270;Laerm;47150;53.032;8.960;2023-02-28T07:05:15;37.88;36.46;39.11;;
61270;Laerm;47150;53.032;8.960;2023-02-28T07:07:41;37.89;36.62;39.34;;
61270;Laerm;47150;53.032;8.960;2023-02-28T07:10:10;37.88;36.48;39.11;;
61270;Laerm;47150;53.032;8.960;2023-02-28T07:12:37;37.90;36.57;39.00;;
61270;Laerm;47150;53.032;8.960;2023-02-28T07:15:03;37.90;36.64;39.11;;
61270;Laerm;47150;53.032;8.960;2023-02-28T07:17:28;37.93;36.59;39.05;;
61270;Laerm;47150;53.032;8.960;2023-02-28T07:19:54;37.97;36.73;39.23;;
61270;Laerm;47150;53.032;8.960;2023-02-28T07:22:19;38.00;36.62;39.27;;
61270;Laerm;47150;53.032;8.960;2023-02-28T07:24:44;38.02;36.85;39.09;;
61270;Laerm;47150;53.032;8.960;2023-02-28T07:27:10;38.03;36.82;39.34;;
61270;Laerm;47150;53.032;8.960;2023-02-28T07:29:35;38.05;36.76;39.16;;
61270;Laerm;47150;53.032;8.960;2023-02-28T07:32:01;38.05;36.70;39.46;;
61270;Laerm;47150;53.032;8.960;2023-02-28T07:34:26;38.05;36.82;39.43;;
61270;Laerm;47150;53.032;8.960;2023-02-28T07:36:55;38.07;36.85;39.25;;
61270;Laerm;47150;53.032;8.960;2023-02-28T07:39:21;38.09;36.70;39.43;;
61270;Laerm;47150;53.032;8.960;2023-02-28T07:41:47;38.08;36.79;39.17;;
61270;Laerm;47150;53.032;8.960;2023-02-28T07:44:13;38.10;36.60;39.32;;
61270;Laerm;47150;53.032;8.960;2023-02-28T07:46:38;38.10;36.86;39.23;;
61270;Laerm;47150;53.032;8.960;2023-02-28T07:49:05;38.12;36.93;39.37;;
61270;Laerm;47150;53.032;8.960;2023-02-28T07:51:31;38.12;36.71;39.48;;
61270;Laerm;47150;53.032;8.960;2023-02-28T07:53:57;38.13;36.72;39.24;;
61270;Laerm;47150;53.032;8.960;2023-02-28T07:56:23;38.13;36.77;39.39;;
61270;Laerm;47150;53.032;8.960;2023-02-28T07:58:48;38.12;36.67;39.41;;
61270;Laerm;47150;53.032;8.960;2023-02-28T08:01:13;38.12;36.84;39.23;;
61270;Laerm;47150;53.032;8.960;2023-02-28T08:03:39;38.11;36.64;39.40;;
61270;Laerm;47150;53.032;8.960;2023-02-28T08:06:06;38.11;36.92;39.21;;
61270;Laerm;47150;53.032;8.960;2023-02-28T08:08:32;38.11;36.84;39.44;;
61270;Laerm;47150;53.032;8.960;2023-02-28T08:10:59;38.10;36.79;39.30;;
61270;Laerm;47150;53.032;8.960;2023-02-28T08:13:25;38.08;36.86;39.22;;
61270;Laerm;47150;53.032;8.960;2023-02-28T08:15:50;38.08;36.98;39.36;;
61270;Laerm;47150;53.032;8.960;2023-02-28T08:18:15;38.06;36.55;39.58;;
61270;Laerm;47150;53.032;8.960;2023-02-28T08:20:41;38.05;36.77;39.20;;
61270;Laerm;47150;53.032;8.960;2023-02-28T08:23:06;38.04;36.55;39.27;;
61270;Laerm;47150;53.032;8.960;2023-02-28T08:25:32;38.04;36.52;39.27;;
61270;Laerm;47150;53.032;8.960;2023-02-28T08:27:57;38.01;36.49;39.19;;
61270;Laerm;47150;53.032;8.960;2023-02-28T08:30:22;37.99;36.52;39.19;;
61270;Laerm;47150;53.032;8.960;2023-02-28T08:32:48;37.97;36.59;39.24;;
61270;Laerm;47150;53.032;8.960;2023-02-28T08:35:13;37.95;36.48;39.07;;
61270;Laerm;47150;53.032;8.960;2023-02-28T08:37:38;37.95;36.73;39.15;;
61270;Laerm;47150;53.032;8.960;2023-02-28T08:40:04;37.95;36.70;39.17;;
61270;Laerm;47150;53.032;8.960;2023-02-28T08:42:31;37.94;36.50;39.09;;
61270;Laerm;47150;53.032;8.960;2023-02-28T08:44:57;37.92;36.63;39.01;;
61270;Laerm;47150;53.032;8.960;2023-02-28T08:47:23;37.93;36.52;39.29;;
61270;Laerm;47150;53.032;8.960;2023-02-28T08:49:48;37.93;36.44;39.24;;
61270;Laerm;47150;53.032;8.960;2023-02-28T08:52:13;37.93;36.50;39.20;;
61270;Laerm;47150;53.032;8.960;2023-02-28T08:54:39;37.94;36.39;39.28;;
61270;Laerm;47150;53.032;8.960;2023-02-28T08:57:04;37.99;36.60;39.18;;
61270;Laerm;47150;53.032;8.960;2023-02-28T08:59:29;37.99;36.41;39.19;;
61270;Laerm;47150;53.032;8.960;2023-02-28T09:01:55;38.01;36.65;39.37;;
61270;Laerm;47150;53.032;8.960;2023-02-28T09:04:20;38.06;36.86;39.57;;
61270;Laerm;47150;53.032;8.960;2023-02-28T09:06:46;38.05;36.54;39.33;;
61270;Laerm;47150;53.032;8.960;2023-02-28T09:09:11;38.04;36.70;39.34;;
61270;Laerm;47150;53.032;8.960;2023-02-28T09:11:37;38.00;36.60;39.39;;
61270;Laerm;47150;53.032;8.960;2023-02-28T09:14:03;37.94;36.66;39.21;;
61270;Laerm;47150;53.032;8.960;2023-02-28T09:16:29;37.91;36.53;39.34;;
61270;Laerm;47150;53.032;8.960;2023-02-28T09:18:55;37.90;36.61;39.06;;
61270;Laerm;47150;53.032;8.960;2023-02-28T09:21:21;37.82;36.20;39.23;;
61270;Laerm;47150;53.032;8.960;2023-02-28T09:23:47;37.48;36.11;38.89;;
61270;Laerm;47150;53.032;8.960;2023-02-28T09:26:15;37.28;36.02;38.65;;
61270;Laerm;47150;53.032;8.960;2023-02-28T09:28:41;37.18;35.55;38.52;;
61270;Laerm;47150;53.032;8.960;2023-02-28T09:31:18;37.10;35.58;38.50;;
61270;Laerm;47150;53.032;8.960;2023-02-28T09:33:48;36.92;35.54;38.08;;
61270;Laerm;47150;53.032;8.960;2023-02-28T09:36:14;36.85;35.51;38.11;;
61270;Laerm;47150;53.032;8.960;2023-02-28T09:38:40;36.81;35.33;38.07;;
61270;Laerm;47150;53.032;8.960;2023-02-28T09:41:25;36.60;34.99;37.79;;
61270;Laerm;47150;53.032;8.960;2023-02-28T09:43:55;36.49;34.95;37.85;;
61270;Laerm;47150;53.032;8.960;2023-02-28T09:46:35;36.46;34.86;37.88;;
61270;Laerm;47150;53.032;8.960;2023-02-28T09:49:07;36.27;34.77;37.62;;
61270;Laerm;47150;53.032;8.960;2023-02-28T09:54:15;36.07;34.62;37.35;;
61270;Laerm;47150;53.032;8.960;2023-02-28T09:56:48;35.99;34.60;37.34;;
61270;Laerm;47150;53.032;8.960;2023-02-28T09:59:38;35.93;34.67;37.21;;
61270;Laerm;47150;53.032;8.960;2023-02-28T10:05:02;35.72;34.40;37.07;;
61270;Laerm;47150;53.032;8.960;2023-02-28T10:11:06;35.61;34.31;36.79;;
61270;Laerm;47150;53.032;8.960;2023-02-28T10:13:11;35.55;34.12;37.23;;
61270;Laerm;47150;53.032;8.960;2023-02-28T10:15:38;35.63;34.14;37.16;;
61270;Laerm;47150;53.032;8.960;2023-02-28T10:18:05;35.89;34.36;37.33;;
61270;Laerm;47150;53.032;8.960;2023-02-28T10:20:37;35.76;34.17;37.10;;
61270;Laerm;47150;53.032;8.960;2023-02-28T10:23:11;35.65;34.33;36.98;;
61270;Laerm;47150;53.032;8.960;2023-02-28T10:25:40;35.40;33.78;39.12;;
61270;Laerm;47150;53.032;8.960;2023-02-28T10:28:14;35.09;33.55;36.43;;
61270;Laerm;47150;53.032;8.960;2023-02-28T10:30:42;34.98;33.61;36.42;;
61270;Laerm;47150;53.032;8.960;2023-02-28T10:33:32;34.91;33.41;36.19;;
61270;Laerm;47150;53.032;8.960;2023-02-28T10:35:59;34.80;33.46;36.11;;
61270;Laerm;47150;53.032;8.960;2023-02-28T10:38:37;34.68;33.31;36.16;;
61270;Laerm;47150;53.032;8.960;2023-02-28T10:41:15;34.58;33.11;35.97;;
61270;Laerm;47150;53.032;8.960;2023-02-28T10:43:42;34.50;32.99;36.11;;
61270;Laerm;47150;53.032;8.960;2023-02-28T10:48:34;34.38;32.74;35.83;;
61270;Laerm;47150;53.032;8.960;2023-02-28T10:51:01;34.19;32.81;35.57;;
61270;Laerm;47150;53.032;8.960;2023-02-28T10:53:48;34.06;32.46;35.55;;
61270;Laerm;47150;53.032;8.960;2023-02-28T10:56:22;34.01;32.65;35.15;;
61270;Laerm;47150;53.032;8.960;2023-02-28T11:01:45;33.91;32.56;35.41;;
61270;Laerm;47150;53.032;8.960;2023-02-28T11:04:18;33.83;32.15;35.34;;
61270;Laerm;47150;53.032;8.960;2023-02-28T11:06:44;33.85;32.51;35.29;;
61270;Laerm;47150;53.032;8.960;2023-02-28T11:09:23;33.74;32.27;35.43;;
61270;Laerm;47150;53.032;8.960;2023-02-28T11:11:52;33.77;32.26;35.09;;
61270;Laerm;47150;53.032;8.960;2023-02-28T11:14:26;33.81;32.36;35.22;;
61270;Laerm;47150;53.032;8.960;2023-02-28T11:16:52;33.77;32.16;35.21;;
61270;Laerm;47150;53.032;8.960;2023-02-28T11:19:23;33.73;32.25;35.00;;
61270;Laerm;47150;53.032;8.960;2023-02-28T11:22:02;33.58;31.99;35.30;;
61270;Laerm;47150;53.032;8.960;2023-02-28T11:24:30;33.48;31.94;34.76;;
61270;Laerm;47150;53.032;8.960;2023-02-28T11:26:58;33.50;32.10;34.71;;
61270;Laerm;47150;53.032;8.960;2023-02-28T11:29:28;33.56;32.21;35.06;;
61270;Laerm;47150;53.032;8.960;2023-02-28T11:34:27;33.50;32.15;34.80;;
61270;Laerm;47150;53.032;8.960;2023-02-28T11:36:57;33.53;31.84;35.00;;
61270;Laerm;47150;53.032;8.960;2023-02-28T11:39:24;33.53;31.77;35.01;;
61270;Laerm;47150;53.032;8.960;2023-02-28T11:47:17;33.55;31.90;35.32;;
61270;Laerm;47150;53.032;8.960;2023-02-28T11:55:06;33.63;32.16;35.57;;
61270;Laerm;47150;53.032;8.960;2023-02-28T12:00:37;33.67;32.14;35.11;;
61270;Laerm;47150;53.032;8.960;2023-02-28T12:03:28;33.69;32.31;35.11;;
61270;Laerm;47150;53.032;8.960;2023-02-28T12:11:16;33.41;31.92;35.06;;
61270;Laerm;47150;53.032;8.960;2023-02-28T12:17:17;33.06;31.35;34.56;;
61270;Laerm;47150;53.032;8.960;2023-02-28T12:22:36;32.88;31.46;34.25;;
61270;Laerm;47150;53.032;8.960;2023-02-28T12:27:34;32.84;31.30;34.42;;
61270;Laerm;47150;53.032;8.960;2023-02-28T12:30:08;32.87;31.46;34.29;;
61270;Laerm;47150;53.032;8.960;2023-02-28T12:32:43;32.88;31.41;34.42;;
61270;Laerm;47150;53.032;8.960;2023-02-28T12:37:49;32.90;31.07;34.36;;
61270;Laerm;47150;53.032;8.960;2023-02-28T12:40:21;32.93;31.26;34.22;;
61270;Laerm;47150;53.032;8.960;2023-02-28T12:42:51;33.04;31.63;34.46;;
61270;Laerm;47150;53.032;8.960;2023-02-28T12:45:24;33.15;31.76;34.37;;
61270;Laerm;47150;53.032;8.960;2023-02-28T12:47:56;33.22;31.88;34.67;;
61270;Laerm;47150;53.032;8.960;2023-02-28T12:50:24;33.31;31.78;34.67;;
61270;Laerm;47150;53.032;8.960;2023-02-28T12:53:00;33.41;32.02;34.88;;
61270;Laerm;47150;53.032;8.960;2023-02-28T13:10:06;33.24;31.69;34.65;;
61270;Laerm;47150;53.032;8.960;2023-02-28T13:12:33;33.19;31.68;34.62;;
61270;Laerm;47150;53.032;8.960;2023-02-28T13:15:08;33.11;31.53;34.57;;
61270;Laerm;47150;53.032;8.960;2023-02-28T13:17:41;32.99;31.34;34.59;;
61270;Laerm;47150;53.032;8.960;2023-02-28T13:20:16;32.94;31.29;34.23;;
61270;Laerm;47150;53.032;8.960;2023-02-28T13:22:47;32.96;31.43;34.29;;
61270;Laerm;47150;53.032;8.960;2023-02-28T13:27:49;32.79;31.19;34.52;;
61270;Laerm;47150;53.032;8.960;2023-02-28T13:33:32;32.76;31.37;34.32;;
61270;Laerm;47150;53.032;8.960;2023-02-28T13:43:59;32.80;31.29;44.45;;
61270;Laerm;47150;53.032;8.960;2023-02-28T13:46:26;32.76;31.11;34.14;;
61270;Laerm;47150;53.032;8.960;2023-02-28T13:48:52;32.65;31.22;34.08;;
61270;Laerm;47150;53.032;8.960;2023-02-28T13:51:38;32.63;31.28;33.94;;
61270;Laerm;47150;53.032;8.960;2023-02-28T13:54:30;32.64;31.19;34.10;;
61270;Laerm;47150;53.032;8.960;2023-02-28T14:05:40;32.47;31.07;33.83;;
61270;Laerm;47150;53.032;8.960;2023-02-28T14:10:45;32.39;31.03;33.96;;
61270;Laerm;47150;53.032;8.960;2023-02-28T14:16:00;32.42;31.01;33.78;;
61270;Laerm;47150;53.032;8.960;2023-02-28T14:18:35;32.35;30.70;33.93;;
61270;Laerm;47150;53.032;8.960;2023-02-28T14:31:45;32.25;30.95;33.57;;
61270;Laerm;47150;53.032;8.960;2023-02-28T14:34:35;32.17;30.74;33.49;;
61270;Laerm;47150;53.032;8.960;2023-02-28T14:37:04;32.18;30.68;33.71;;
61270;Laerm;47150;53.032;8.960;2023-02-28T14:39:31;32.04;30.57;33.35;;
61270;Laerm;47150;53.032;8.960;2023-02-28T14:41:57;31.94;30.40;33.52;;
61270;Laerm;47150;53.032;8.960;2023-02-28T14:44:28;31.90;30.59;33.52;;
61270;Laerm;47150;53.032;8.960;2023-02-28T14:46:56;31.83;30.51;33.00;;
61270;Laerm;47150;53.032;8.960;2023-02-28T14:49:30;31.78;30.38;33.21;;
61270;Laerm;47150;53.032;8.960;2023-02-28T14:52:17;31.76;30.39;36.09;;
61270;Laerm;47150;53.032;8.960;2023-02-28T14:54:44;31.73;30.12;33.18;;
61270;Laerm;47150;53.032;8.960;2023-02-28T14:57:25;31.63;30.20;32.84;;
61270;Laerm;47150;53.032;8.960;2023-02-28T15:02:25;31.50;30.03;32.91;;
61270;Laerm;47150;53.032;8.960;2023-02-28T15:05:10;31.43;30.12;32.97;;
61270;Laerm;47150;53.032;8.960;2023-02-28T15:07:42;31.35;30.05;32.88;;
61270;Laerm;47150;53.032;8.960;2023-02-28T15:12:54;31.25;29.71;33.34;;
61270;Laerm;47150;53.032;8.960;2023-02-28T15:15:22;31.17;29.94;32.32;;
61270;Laerm;47150;53.032;8.960;2023-02-28T15:17:53;31.21;29.75;32.68;;
61270;Laerm;47150;53.032;8.960;2023-02-28T15:20:20;31.18;29.85;32.58;;
61270;Laerm;47150;53.032;8.960;2023-02-28T15:22:47;31.19;29.53;33.00;;
61270;Laerm;47150;53.032;8.960;2023-02-28T15:25:18;31.25;29.73;32.81;;
61270;Laerm;47150;53.032;8.960;2023-02-28T15:27:55;31.22;29.83;32.46;;
61270;Laerm;47150;53.032;8.960;2023-02-28T15:30:27;31.28;29.97;32.64;;
61270;Laerm;47150;53.032;8.960;2023-02-28T15:33:26;31.31;29.78;32.61;;
61270;Laerm;47150;53.032;8.960;2023-02-28T15:35:50;31.30;29.88;32.85;;
61270;Laerm;47150;53.032;8.960;2023-02-28T15:38:24;31.32;29.82;32.70;;
61270;Laerm;47150;53.032;8.960;2023-02-28T15:40:55;31.38;29.61;32.60;;
61270;Laerm;47150;53.032;8.960;2023-02-28T15:46:02;31.21;29.68;32.60;;
61270;Laerm;47150;53.032;8.960;2023-02-28T15:51:08;31.21;29.78;32.59;;
61270;Laerm;47150;53.032;8.960;2023-02-28T15:56:36;31.31;29.93;32.64;;
61270;Laerm;47150;53.032;8.960;2023-02-28T15:59:06;31.38;29.85;35.18;;
61270;Laerm;47150;53.032;8.960;2023-02-28T16:01:34;31.40;29.81;32.71;;
61270;Laerm;47150;53.032;8.960;2023-02-28T16:09:06;31.48;30.01;32.67;;
61270;Laerm;47150;53.032;8.960;2023-02-28T16:11:34;31.33;29.79;32.78;;
61270;Laerm;47150;53.032;8.960;2023-02-28T16:14:00;31.09;29.51;32.52;;
61270;Laerm;47150;53.032;8.960;2023-02-28T16:16:25;31.01;29.83;32.21;;
61270;Laerm;47150;53.032;8.960;2023-02-28T16:18:51;30.95;29.56;32.28;;
61270;Laerm;47150;53.032;8.960;2023-02-28T16:21:17;30.92;29.59;32.13;;